Terminal Aerodrome Forecast
Issued by NWS

Home | Current Version | Previous Version | Text Only | Print | Product List | Glossary On
Versions: 1 2 3 4 5 6 7 8 9 10 11 12 13 14 15 16 17 18 19
000
FTUS43 KLSX 300700 AAB
TAFUIN
TAF AMD
KUIN 300724Z 3007/3106 19005KT 6SM -SHRA BR SCT010 OVC080
      TEMPO 3007/3010 5SM -SHRA BR BKN008
     FM301000 VRB04KT 5SM -SHRA BR OVC008
     FM301200 36007KT 5SM -RA BR OVC008
     FM301800 02013KT P6SM OVC012=

USA.gov is the U.S. government's official web portal to all federal, state and local government web resources and services.